Time;durP1;ratioP1;P1;durP2;ratioP2;P2;SDS_P1;SDS_P2;PMS_P1;PMS_P2;Temp;Humidity;BMP_temperature;BMP_pressure;BME280_temperature;BME280_humidity;BME280_pressure;Samples;Min_cycle;Max_cycle;Signal;HPM_P1;HPM_P2
2021/10/26 00:13:52;;;;;;;37.08;15.63;;;;;;;5.94;89.88;100761.95;714966;1205;114095;-72
2021/10/26 00:28:56;;;;;;;42.03;20.27;;;;;;;5.75;91.28;100749.20;714453;1200;113647;-73
2021/10/26 00:43:58;;;;;;;34.33;14.98;;;;;;;5.69;91.00;100753.02;714602;1200;114265;-73
2021/10/26 00:59:01;;;;;;;33.20;16.73;;;;;;;5.36;92.27;100746.28;713916;1200;114076;-73
2021/10/26 01:14:05;;;;;;;37.80;15.73;;;;;;;5.38;92.79;100751.39;713897;1205;114025;-72
2021/10/26 01:29:07;;;;;;;36.15;15.53;;;;;;;5.15;92.99;100746.60;713919;1202;114075;-72
2021/10/26 01:44:09;;;;;;;27.30;15.23;;;;;;;5.00;93.03;100737.08;713867;1178;114754;-72
2021/10/26 01:59:12;;;;;;;30.33;14.78;;;;;;;4.93;93.11;100730.56;714024;1206;113715;-72
2021/10/26 02:14:14;;;;;;;34.68;15.83;;;;;;;4.80;93.75;100739.08;713874;1177;113617;-72
2021/10/26 02:29:17;;;;;;;36.30;19.25;;;;;;;4.76;94.43;100740.14;714019;1202;114350;-72
2021/10/26 02:44:19;;;;;;;33.78;17.98;;;;;;;4.46;94.43;100746.15;715058;1200;115407;-72
2021/10/26 02:59:21;;;;;;;38.85;17.18;;;;;;;4.33;97.12;100734.76;718232;1202;113212;-72
2021/10/26 03:14:23;;;;;;;32.78;16.93;;;;;;;4.32;97.26;100720.91;713889;1202;113943;-74
2021/10/26 03:29:26;;;;;;;33.60;16.35;;;;;;;4.39;97.14;100718.81;713896;1202;113866;-73
2021/10/26 03:44:28;;;;;;;28.70;15.65;;;;;;;4.45;98.00;100726.28;714377;1176;113721;-72
2021/10/26 03:59:30;;;;;;;27.40;14.10;;;;;;;4.41;97.21;100709.19;713757;1177;113488;-72
2021/10/26 04:14:33;;;;;;;40.30;18.25;;;;;;;4.47;98.79;100692.41;713871;1205;113643;-73
2021/10/26 04:29:50;;;;;;;29.20;15.43;;;;;;;4.53;99.19;100673.03;713542;1176;113647;-73
2021/10/26 04:44:52;;;;;;;32.07;15.70;;;;;;;4.53;98.60;100680.83;713626;1202;114755;-73
2021/10/26 04:59:55;;;;;;;34.23;15.90;;;;;;;4.52;99.61;100692.17;713511;1205;114252;-72
2021/10/26 05:14:58;;;;;;;41.00;19.25;;;;;;;4.37;100.00;100689.50;713309;1202;113919;-74
2021/10/26 05:30:00;;;;;;;36.90;17.17;;;;;;;4.31;100.00;100703.65;713818;1205;114320;-73
2021/10/26 05:45:04;;;;;;;33.87;16.87;;;;;;;4.26;100.00;100717.82;713562;1202;114745;-73
2021/10/26 06:00:07;;;;;;;36.33;17.73;;;;;;;4.37;100.00;100707.69;714198;1200;114605;-72
2021/10/26 06:15:09;;;;;;;35.20;17.10;;;;;;;4.47;100.00;100695.87;714694;1200;114709;-72
2021/10/26 06:30:12;;;;;;;36.80;16.33;;;;;;;4.60;100.00;100719.38;714176;1200;115544;-72
2021/10/26 06:45:15;;;;;;;33.30;16.05;;;;;;;4.97;100.00;100740.69;715084;1195;115282;-72
2021/10/26 07:00:19;;;;;;;30.97;15.73;;;;;;;5.61;100.00;100730.05;714012;1200;114415;-75
2021/10/26 07:15:22;;;;;;;41.73;17.13;;;;;;;6.20;100.00;100742.11;713843;1200;114048;-74
2021/10/26 07:30:29;;;;;;;29.70;15.90;;;;;;;6.45;98.80;100735.36;714115;1200;115278;-74
2021/10/26 07:45:31;;;;;;;36.73;20.50;;;;;;;6.72;97.67;100751.02;713986;1200;114991;-74
2021/10/26 08:00:34;;;;;;;39.03;18.60;;;;;;;7.48;97.40;100735.60;713831;1202;115505;-74
2021/10/26 08:15:38;;;;;;;32.80;15.57;;;;;;;8.24;94.25;100736.45;713625;1202;114297;-74
2021/10/26 08:45:52;;;;;;;35.97;17.50;;;;;;;8.69;92.15;100727.22;714026;1206;113671;-73
2021/10/26 09:00:58;;;;;;;34.03;15.63;;;;;;;9.11;91.60;100712.73;714059;1200;115217;-72
2021/10/26 09:31:28;;;;;;;27.90;17.40;;;;;;;9.94;89.03;100729.11;714718;1200;115546;-71
2021/10/26 09:46:31;;;;;;;27.50;13.78;;;;;;;10.63;88.43;100717.54;713779;1178;114496;-72
2021/10/26 10:01:34;;;;;;;29.13;16.93;;;;;;;10.42;85.27;100729.78;713849;1200;115573;-72
2021/10/26 10:16:37;;;;;;;110.17;44.23;;;;;;;11.47;85.35;100708.04;713818;1200;113989;-72
2021/10/26 10:31:40;;;;;;;20.48;11.70;;;;;;;11.98;82.45;100690.53;713811;1205;114374;-71
2021/10/26 10:46:56;;;;;;;30.85;17.83;;;;;;;12.70;81.15;100659.59;713801;1202;114298;-73
2021/10/26 11:02:42;;;;;;;24.55;13.20;;;;;;;12.67;81.16;100659.88;713681;1204;115240;-71
2021/10/26 11:17:46;;;;;;;74.33;28.47;;;;;;;12.57;78.79;100649.34;714165;1205;114567;-72
2021/10/26 11:33:14;;;;;;;32.33;16.03;;;;;;;12.62;79.61;100652.39;714156;1200;114837;-72
2021/10/26 11:48:41;;;;;;;36.47;18.53;;;;;;;12.42;79.57;100661.28;714241;1200;114557;-72
2021/10/26 12:03:49;;;;;;;33.07;16.73;;;;;;;12.48;79.78;100656.29;714467;1200;114159;-71
2021/10/26 12:18:51;;;;;;;31.50;16.95;;;;;;;12.76;80.13;100648.52;714670;1200;114238;-72
2021/10/26 12:34:01;;;;;;;25.40;13.80;;;;;;;13.10;79.80;100645.38;714335;1202;115241;-74
2021/10/26 12:49:13;;;;;;;26.70;13.28;;;;;;;13.10;78.84;100655.91;714263;1202;114446;-73
2021/10/26 13:04:24;;;;;;;49.65;23.90;;;;;;;12.62;79.27;100651.58;714265;1205;114547;-74
2021/10/26 13:19:28;;;;;;;29.47;15.03;;;;;;;12.69;79.67;100644.77;714326;1204;114229;-75
2021/10/26 13:34:31;;;;;;;21.05;12.78;;;;;;;12.85;80.22;100638.92;714326;1200;115304;-75
2021/10/26 13:49:34;;;;;;;23.90;15.60;;;;;;;12.34;81.53;100633.02;713935;1202;115040;-74
2021/10/26 14:04:37;;;;;;;97.23;32.57;;;;;;;11.94;82.66;100636.53;714662;1177;114073;-77
2021/10/26 14:19:40;;;;;;;73.83;31.75;;;;;;;11.64;85.36;100664.55;714139;1178;114417;-72
2021/10/26 14:34:45;;;;;;;267.00;120.50;;;;;;;11.26;89.43;100652.91;714116;1178;114282;-72
2021/10/26 15:05:13;;;;;;;35.25;22.20;;;;;;;10.69;98.45;100695.23;713988;1203;115410;-74
2021/10/26 15:20:16;;;;;;;39.63;22.38;;;;;;;10.44;100.00;100684.12;714361;1202;115177;-74
2021/10/26 15:35:20;;;;;;;35.37;20.27;;;;;;;10.25;100.00;100689.15;714231;1202;115591;-72
2021/10/26 15:50:24;;;;;;;33.63;17.57;;;;;;;10.12;100.00;100691.91;714039;1180;114125;-73
2021/10/26 16:05:27;;;;;;;52.95;26.35;;;;;;;10.05;100.00;100711.72;714396;1200;115693;-75
2021/10/26 16:20:30;;;;;;;60.58;34.20;;;;;;;10.02;100.00;100718.03;715377;1202;115796;-73
2021/10/26 16:35:33;;;;;;;49.75;24.38;;;;;;;9.91;100.00;100720.65;714300;1204;114015;-75
2021/10/26 16:50:41;;;;;;;46.83;25.10;;;;;;;9.86;100.00;100736.75;714278;1177;113968;-73
2021/10/26 17:05:44;;;;;;;53.00;26.20;;;;;;;9.91;100.00;100757.34;714733;1200;113903;-75
2021/10/26 17:20:48;;;;;;;65.18;27.95;;;;;;;9.96;100.00;100752.58;715234;1202;114162;-76
2021/10/26 17:35:52;;;;;;;54.03;26.23;;;;;;;10.01;100.00;100771.41;714474;1200;114935;-76
2021/10/26 17:50:56;;;;;;;92.30;36.98;;;;;;;9.95;100.00;100772.72;714353;1200;114219;-74
2021/10/26 18:06:02;;;;;;;44.78;25.30;;;;;;;9.92;100.00;100778.18;714296;1203;114253;-75
2021/10/26 18:21:08;;;;;;;42.17;23.03;;;;;;;9.93;100.00;100779.03;714287;1177;115254;-75
2021/10/26 18:36:11;;;;;;;46.30;23.45;;;;;;;9.93;100.00;100784.27;714701;1177;113301;-74
2021/10/26 18:51:16;;;;;;;48.55;23.55;;;;;;;9.98;100.00;100797.86;714845;1190;114731;-75
2021/10/26 19:06:18;;;;;;;65.63;29.93;;;;;;;10.04;100.00;100799.16;714778;1200;115168;-74
2021/10/26 19:21:21;;;;;;;50.67;26.40;;;;;;;10.06;100.00;100808.58;714654;1202;114273;-74
2021/10/26 19:36:23;;;;;;;44.28;23.95;;;;;;;10.10;100.00;100807.38;714238;1200;114030;-74
2021/10/26 19:51:26;;;;;;;42.43;21.88;;;;;;;10.06;100.00;100821.69;714380;1200;115277;-76
2021/10/26 20:06:29;;;;;;;42.53;22.93;;;;;;;10.09;100.00;100831.92;715363;1205;115452;-75
2021/10/26 20:21:45;;;;;;;32.90;20.20;;;;;;;10.09;100.00;100838.96;714992;1177;114220;-74
2021/10/26 20:36:47;;;;;;;42.28;20.83;;;;;;;10.12;100.00;100852.68;714163;1203;114979;-74
2021/10/26 20:51:53;;;;;;;37.17;19.83;;;;;;;10.20;100.00;100848.61;714884;1202;114679;-74
2021/10/26 21:06:56;;;;;;;38.35;20.08;;;;;;;10.30;100.00;100850.39;714070;1177;114474;-75
2021/10/26 21:21:58;;;;;;;37.68;20.23;;;;;;;10.36;100.00;100861.39;714033;1177;114288;-76
2021/10/26 21:52:35;;;;;;;39.95;19.63;;;;;;;10.39;100.00;100861.17;713639;1200;115993;-73
2021/10/26 22:07:38;;;;;;;37.00;20.23;;;;;;;10.43;100.00;100866.05;713786;1177;114022;-74
2021/10/26 22:22:43;;;;;;;36.40;19.27;;;;;;;10.41;100.00;100865.34;713733;1178;114256;-74
2021/10/26 22:37:46;;;;;;;35.28;19.48;;;;;;;10.39;100.00;100862.00;713680;1178;114681;-74
2021/10/26 22:52:48;;;;;;;37.18;20.20;;;;;;;10.39;100.00;100879.53;713688;1202;114304;-74
2021/10/26 23:07:51;;;;;;;41.90;20.40;;;;;;;10.42;100.00;100884.53;714009;1200;115443;-73
2021/10/26 23:22:54;;;;;;;35.98;19.13;;;;;;;10.39;100.00;100880.36;714002;1202;113488;-76
2021/10/26 23:37:56;;;;;;;35.15;19.10;;;;;;;10.38;100.00;100881.30;713849;1200;114173;-73
2021/10/26 23:52:58;;;;;;;33.87;17.63;;;;;;;10.28;100.00;100883.79;713850;1202;115749;-75
